Time;durP1;ratioP1;P1;durP2;ratioP2;P2;SDS_P1;SDS_P2;PMS_P1;PMS_P2;Temp;Humidity;BMP_temperature;BMP_pressure;BME280_temperature;BME280_humidity;BME280_pressure;Samples;Min_cycle;Max_cycle;Signal;HPM_P1;HPM_P2
2021/03/08 00:01:30;;;;;;;15.03;9.40;;;2.80;99.50;;;;;;5140970;27;20019;-71
2021/03/08 00:03:56;;;;;;;16.93;9.97;;;2.80;99.60;;;;;;5135592;27;20023;-71
2021/03/08 00:06:21;;;;;;;19.87;11.10;;;2.70;99.90;;;;;;5136963;27;20025;-71
2021/03/08 00:08:47;;;;;;;18.13;10.53;;;2.70;99.90;;;;;;5136890;27;20494;-71
2021/03/08 00:11:12;;;;;;;18.17;10.90;;;2.70;99.90;;;;;;5136630;27;20020;-72
2021/03/08 00:13:38;;;;;;;17.93;10.70;;;2.70;99.90;;;;;;5136448;27;20027;-71
2021/03/08 00:16:04;;;;;;;18.70;10.93;;;2.70;99.90;;;;;;5137143;27;20019;-71
2021/03/08 00:18:29;;;;;;;18.27;10.83;;;2.60;99.90;;;;;;5135475;27;20498;-71
2021/03/08 00:20:55;;;;;;;15.07;9.53;;;2.50;99.90;;;;;;5135625;27;20019;-71
2021/03/08 00:23:20;;;;;;;17.00;10.13;;;2.50;99.90;;;;;;5136621;27;20433;-72
2021/03/08 00:25:46;;;;;;;15.20;10.10;;;2.40;99.90;;;;;;5136438;27;20484;-72
2021/03/08 00:28:12;;;;;;;18.05;10.43;;;2.40;99.90;;;;;;5136366;27;20360;-72
2021/03/08 00:30:38;;;;;;;18.20;10.23;;;2.40;99.90;;;;;;5135032;27;20027;-72
2021/03/08 00:33:03;;;;;;;18.03;10.00;;;2.30;99.90;;;;;;5135083;27;20022;-71
2021/03/08 00:35:29;;;;;;;15.55;10.40;;;2.20;99.90;;;;;;5136281;27;20079;-71
2021/03/08 00:37:55;;;;;;;19.67;10.10;;;2.10;99.90;;;;;;5135211;27;20023;-71
2021/03/08 00:40:22;;;;;;;16.10;9.57;;;2.10;99.90;;;;;;5139788;27;20479;-71
2021/03/08 00:42:49;;;;;;;17.38;10.07;;;2.10;99.90;;;;;;5139475;27;20531;-71
2021/03/08 00:45:17;;;;;;;15.00;9.90;;;2.00;99.90;;;;;;5134810;27;20422;-71
2021/03/08 00:47:43;;;;;;;18.85;11.45;;;2.00;99.90;;;;;;5135738;27;20445;-72
2021/03/08 00:50:16;;;;;;;15.05;9.85;;;2.00;99.90;;;;;;5136088;27;20109;-72
2021/03/08 00:52:42;;;;;;;18.70;11.10;;;1.90;99.90;;;;;;5136296;27;20106;-72
2021/03/08 00:55:09;;;;;;;19.52;10.77;;;1.90;99.90;;;;;;5134640;27;20084;-72
2021/03/08 00:57:34;;;;;;;17.83;10.70;;;1.90;99.90;;;;;;5134363;27;20031;-72
2021/03/08 01:00:00;;;;;;;18.23;10.03;;;1.80;99.90;;;;;;5135254;27;20034;-72
2021/03/08 01:02:25;;;;;;;20.07;11.90;;;1.80;99.90;;;;;;5136305;27;20035;-70
2021/03/08 01:04:51;;;;;;;16.77;10.83;;;1.80;99.90;;;;;;5135792;27;20031;-71
2021/03/08 01:07:17;;;;;;;21.77;10.93;;;1.70;99.90;;;;;;5134386;27;20026;-72
2021/03/08 01:09:42;;;;;;;17.10;11.00;;;1.70;99.90;;;;;;5135731;27;20384;-72
2021/03/08 01:12:08;;;;;;;16.97;11.93;;;1.70;99.90;;;;;;5135732;27;20042;-72
2021/03/08 01:14:34;;;;;;;18.85;11.00;;;1.60;99.90;;;;;;5135714;27;20468;-72
2021/03/08 01:17:00;;;;;;;19.40;11.27;;;1.60;99.90;;;;;;5134187;27;20035;-71
2021/03/08 01:19:26;;;;;;;17.57;11.73;;;1.60;99.90;;;;;;5135450;27;20372;-72
2021/03/08 01:21:52;;;;;;;19.17;11.43;;;1.50;99.90;;;;;;5135607;27;20072;-72
2021/03/08 01:24:18;;;;;;;19.47;11.33;;;1.50;99.90;;;;;;5134186;27;20057;-72
2021/03/08 01:26:43;;;;;;;18.10;10.77;;;1.40;99.90;;;;;;5135517;27;20047;-72
2021/03/08 01:29:10;;;;;;;21.77;13.17;;;1.40;99.90;;;;;;5133911;27;20035;-72
2021/03/08 01:31:35;;;;;;;19.95;12.02;;;1.40;99.90;;;;;;5135219;27;20103;-72
2021/03/08 01:34:01;;;;;;;18.20;11.73;;;1.30;99.90;;;;;;5135171;27;20027;-72
2021/03/08 01:36:26;;;;;;;18.60;11.47;;;1.30;99.90;;;;;;5134062;27;20524;-72
2021/03/08 01:38:52;;;;;;;19.20;12.27;;;1.30;99.90;;;;;;5133875;27;20030;-71
2021/03/08 01:41:18;;;;;;;19.17;12.17;;;1.20;99.90;;;;;;5135177;27;20486;-71
2021/03/08 01:43:43;;;;;;;19.30;11.70;;;1.20;99.90;;;;;;5135066;27;20533;-71
2021/03/08 01:46:09;;;;;;;20.23;11.83;;;1.10;99.90;;;;;;5135432;27;20027;-71
2021/03/08 01:48:35;;;;;;;18.60;11.57;;;1.10;99.90;;;;;;5135538;27;20483;-71
2021/03/08 01:51:01;;;;;;;18.65;12.52;;;1.00;99.90;;;;;;5135440;27;20487;-72
2021/03/08 01:53:28;;;;;;;20.55;12.50;;;1.00;99.90;;;;;;5135324;27;20069;-71
2021/03/08 01:55:55;;;;;;;18.52;12.45;;;0.90;99.90;;;;;;5133691;27;20034;-71
2021/03/08 01:58:21;;;;;;;21.50;12.95;;;0.90;99.90;;;;;;5133938;27;20484;-71
2021/03/08 02:00:47;;;;;;;18.15;11.55;;;0.90;99.90;;;;;;5136345;27;20027;-71
2021/03/08 02:03:13;;;;;;;22.40;13.40;;;0.90;99.90;;;;;;5137641;27;20428;-71
2021/03/08 02:05:42;;;;;;;20.23;12.40;;;0.80;99.90;;;;;;5139217;27;20030;-71
2021/03/08 02:08:10;;;;;;;22.08;12.77;;;0.80;99.90;;;;;;5138033;27;20798;-71
2021/03/08 02:10:38;;;;;;;19.08;12.68;;;0.70;99.90;;;;;;5138108;27;20031;-71
2021/03/08 02:13:19;;;;;;;20.05;12.82;;;0.70;99.90;;;;;;5138353;27;20068;-71
2021/03/08 02:16:00;;;;;;;21.10;14.05;;;0.60;99.90;;;;;;5140294;27;20087;-71
2021/03/08 02:18:29;;;;;;;22.85;13.27;;;0.50;99.90;;;;;;5137472;27;20372;-71
2021/03/08 02:21:31;;;;;;;23.33;14.32;;;0.50;99.90;;;;;;5135265;27;20105;-71
2021/03/08 02:24:14;;;;;;;22.73;13.68;;;0.40;99.90;;;;;;5135811;27;20041;-71
2021/03/08 02:26:47;;;;;;;23.00;14.13;;;0.30;99.90;;;;;;5134108;27;20027;-71
2021/03/08 02:29:21;;;;;;;25.05;13.00;;;0.30;99.90;;;;;;5134099;27;20030;-71
2021/03/08 02:31:49;;;;;;;22.10;13.80;;;0.30;99.90;;;;;;5135939;27;20037;-72
2021/03/08 02:34:23;;;;;;;26.48;13.93;;;0.30;99.90;;;;;;5135435;27;20015;-72
2021/03/08 02:36:57;;;;;;;23.60;14.50;;;0.30;99.90;;;;;;5135103;27;20033;-72
2021/03/08 02:39:32;;;;;;;24.63;14.20;;;0.30;99.90;;;;;;5135580;27;20072;-71
2021/03/08 02:42:02;;;;;;;22.85;13.25;;;0.30;99.90;;;;;;5135630;27;20413;-72
2021/03/08 02:44:36;;;;;;;21.48;13.15;;;0.30;99.90;;;;;;5134067;27;20031;-72
2021/03/08 02:47:03;;;;;;;26.83;15.23;;;0.20;99.90;;;;;;5136368;27;20027;-72
2021/03/08 02:49:31;;;;;;;23.55;13.88;;;0.20;99.90;;;;;;5133909;27;20023;-72
2021/03/08 02:52:00;;;;;;;25.88;14.57;;;0.20;99.90;;;;;;5135215;28;20081;-72
2021/03/08 02:54:30;;;;;;;25.70;15.30;;;0.20;99.90;;;;;;5134652;28;20024;-72
2021/03/08 02:57:00;;;;;;;23.90;14.32;;;0.30;99.90;;;;;;5134970;28;20030;-71
2021/03/08 02:59:28;;;;;;;25.35;14.10;;;0.30;99.90;;;;;;5133242;28;20057;-71
2021/03/08 03:01:54;;;;;;;28.70;16.13;;;0.20;99.90;;;;;;5134566;28;20023;-72
2021/03/08 03:04:22;;;;;;;23.33;14.60;;;0.20;99.90;;;;;;5134695;28;20011;-71
2021/03/08 03:06:49;;;;;;;24.70;14.65;;;0.20;99.90;;;;;;5134705;28;20038;-72
2021/03/08 03:09:16;;;;;;;;;;;0.10;99.90;;;;;;5133769;28;20391;-72
2021/03/08 03:11:48;;;;;;;27.52;14.63;;;0.10;99.90;;;;;;5133519;28;19956;-71
2021/03/08 03:14:15;;;;;;;27.05;15.15;;;0.10;99.90;;;;;;5133510;28;20494;-71
2021/03/08 03:16:43;;;;;;;26.73;15.40;;;0.10;99.90;;;;;;5135467;28;20024;-71
2021/03/08 03:19:10;;;;;;;25.33;14.73;;;0.00;99.90;;;;;;5134535;28;20475;-71
2021/03/08 03:21:37;;;;;;;25.67;14.95;;;0.00;99.90;;;;;;5133112;28;20102;-71
2021/03/08 03:24:05;;;;;;;27.48;14.52;;;0.00;99.90;;;;;;5135212;27;20027;-72
2021/03/08 03:26:31;;;;;;;26.75;14.93;;;-0.10;99.90;;;;;;5137609;27;20069;-71
2021/03/08 03:28:58;;;;;;;27.23;16.48;;;-0.10;99.90;;;;;;5138956;27;20019;-72
2021/03/08 03:31:24;;;;;;;;;;;-0.10;99.90;;;;;;5137293;27;20075;-71
2021/03/08 03:33:51;;;;;;;26.73;15.10;;;-0.10;99.90;;;;;;5141940;27;20002;-71
2021/03/08 03:36:17;;;;;;;25.45;14.75;;;-0.10;99.90;;;;;;5138885;27;20034;-71
2021/03/08 03:38:44;;;;;;;26.33;15.02;;;-0.20;99.90;;;;;;5136342;27;20027;-71
2021/03/08 03:41:10;;;;;;;28.10;15.30;;;-0.20;99.90;;;;;;5137656;27;20043;-71
2021/03/08 03:43:37;;;;;;;27.40;15.70;;;-0.20;99.90;;;;;;5137711;27;20084;-72
2021/03/08 03:46:03;;;;;;;25.58;15.23;;;-0.20;99.90;;;;;;5136038;27;20054;-71
2021/03/08 03:48:31;;;;;;;26.45;15.00;;;-0.20;99.90;;;;;;5136267;27;20158;-71
2021/03/08 03:50:56;;;;;;;28.83;14.52;;;-0.20;99.90;;;;;;5140824;27;20027;-71
2021/03/08 03:53:22;;;;;;;24.83;14.32;;;-0.20;99.90;;;;;;5142644;27;20047;-71
2021/03/08 03:55:48;;;;;;;24.67;14.57;;;-0.30;99.90;;;;;;5136917;27;20118;-69
2021/03/08 03:58:20;;;;;;;24.73;15.35;;;-0.30;99.90;;;;;;5137750;27;20027;-69
2021/03/08 04:00:56;;;;;;;25.63;15.07;;;-0.30;99.90;;;;;;5136300;27;20062;-69
2021/03/08 04:03:26;;;;;;;26.80;15.10;;;-0.30;99.90;;;;;;5137456;27;20487;-69
2021/03/08 04:05:53;;;;;;;27.73;15.18;;;-0.40;99.90;;;;;;5136179;27;20516;-69
2021/03/08 04:08:23;;;;;;;27.85;15.48;;;-0.40;99.90;;;;;;5137293;27;20027;-69
2021/03/08 04:10:50;;;;;;;28.05;16.15;;;-0.50;99.90;;;;;;5137567;27;20379;-69
2021/03/08 04:13:17;;;;;;;29.40;15.55;;;-0.50;99.90;;;;;;5137081;27;20495;-68
2021/03/08 04:15:43;;;;;;;;;;;-0.60;99.90;;;;;;5137848;27;20015;-68
2021/03/08 04:18:12;;;;;;;27.48;15.32;;;-0.60;99.90;;;;;;5136964;27;19908;-69
2021/03/08 04:20:39;;;;;;;27.63;15.35;;;-0.70;99.90;;;;;;5136021;27;20030;-69
2021/03/08 04:23:07;;;;;;;31.67;17.50;;;-0.70;99.90;;;;;;5137167;27;20019;-69
2021/03/08 04:25:34;;;;;;;28.40;15.82;;;-0.70;99.90;;;;;;5137234;27;20015;-69
2021/03/08 04:28:02;;;;;;;27.27;15.15;;;-0.70;99.90;;;;;;5135706;27;20380;-69
2021/03/08 04:30:29;;;;;;;27.13;15.30;;;-0.70;99.90;;;;;;5136816;27;20031;-69
2021/03/08 04:32:54;;;;;;;27.25;15.23;;;-0.70;99.90;;;;;;5136990;27;20019;-69
2021/03/08 04:35:23;;;;;;;29.23;16.60;;;-0.70;99.90;;;;;;5135709;27;20027;-68
2021/03/08 04:37:50;;;;;;;30.50;17.25;;;-0.70;99.90;;;;;;5136773;27;20428;-68
2021/03/08 04:40:17;;;;;;;29.42;16.27;;;-0.80;99.90;;;;;;5136663;27;20034;-69
2021/03/08 04:42:43;;;;;;;26.20;15.32;;;-0.80;99.90;;;;;;5136709;27;20031;-69
2021/03/08 04:45:12;;;;;;;26.25;15.13;;;-0.90;99.90;;;;;;5136654;27;20020;-69
2021/03/08 04:47:40;;;;;;;27.30;15.52;;;-0.80;99.90;;;;;;5136460;27;20042;-69
2021/03/08 04:50:07;;;;;;;26.92;15.68;;;-0.80;99.90;;;;;;5136672;27;20503;-69
2021/03/08 04:52:33;;;;;;;;;;;-0.90;99.90;;;;;;5136888;27;20058;-69
2021/03/08 04:54:59;;;;;;;28.58;15.32;;;-0.90;99.90;;;;;;5136194;27;19908;-69
2021/03/08 04:57:25;;;;;;;32.40;15.57;;;-0.90;99.90;;;;;;5137681;27;20027;-69
2021/03/08 04:59:52;;;;;;;30.17;15.65;;;-0.90;99.90;;;;;;5137185;27;20031;-69
2021/03/08 05:02:20;;;;;;;26.85;15.52;;;-0.90;99.90;;;;;;5135630;27;20076;-69
2021/03/08 05:04:49;;;;;;;26.88;16.13;;;-0.90;99.90;;;;;;5136465;27;20015;-69
2021/03/08 05:07:25;;;;;;;29.35;16.08;;;-0.90;99.90;;;;;;5137113;27;20042;-69
2021/03/08 05:09:53;;;;;;;31.07;16.47;;;-1.00;99.90;;;;;;5139278;27;20019;-69
2021/03/08 05:12:20;;;;;;;28.10;15.00;;;-1.00;99.90;;;;;;5137800;27;20257;-68
2021/03/08 05:14:47;;;;;;;26.95;15.38;;;-1.00;99.90;;;;;;5138563;27;20048;-69
2021/03/08 05:17:16;;;;;;;28.73;15.23;;;-1.00;99.90;;;;;;5141368;27;20027;-69
2021/03/08 05:19:45;;;;;;;29.40;15.48;;;-1.10;99.90;;;;;;5143159;27;20019;-69
2021/03/08 05:22:13;;;;;;;25.40;14.95;;;-1.10;99.90;;;;;;5137913;27;20023;-69
2021/03/08 05:24:41;;;;;;;25.42;15.60;;;-1.10;99.90;;;;;;5140030;27;20080;-69
2021/03/08 05:27:10;;;;;;;28.67;16.17;;;-1.10;99.90;;;;;;5140162;27;20097;-69
2021/03/08 05:29:40;;;;;;;26.40;15.35;;;-1.10;99.90;;;;;;5140197;27;20093;-69
2021/03/08 05:32:09;;;;;;;29.40;16.13;;;-1.10;99.90;;;;;;5143123;27;20023;-69
2021/03/08 05:34:39;;;;;;;32.83;15.63;;;-1.10;99.90;;;;;;5141261;27;20023;-69
2021/03/08 05:37:06;;;;;;;29.77;16.15;;;-1.00;99.90;;;;;;5137289;27;20022;-70
2021/03/08 05:39:31;;;;;;;;;;;-1.00;99.90;;;;;;5153187;27;20052;-68
2021/03/08 05:42:13;;;;;;;26.73;14.57;;;-1.00;99.90;;;;;;5150800;27;19907;-70
2021/03/08 05:44:57;;;;;;;22.88;13.63;;;-1.10;99.90;;;;;;5137384;27;20058;-69
2021/03/08 05:48:01;;;;;;;24.48;14.32;;;-1.10;99.90;;;;;;5135327;27;20033;-69
2021/03/08 05:50:47;;;;;;;25.02;14.57;;;-1.10;99.90;;;;;;5135590;27;20023;-69
2021/03/08 05:53:21;;;;;;;23.75;14.63;;;-1.10;99.90;;;;;;5136103;27;20031;-69
2021/03/08 05:56:00;;;;;;;25.40;14.48;;;-1.10;99.90;;;;;;5135841;27;20027;-69
2021/03/08 05:58:49;;;;;;;24.17;14.35;;;-1.20;99.90;;;;;;5135435;27;20023;-68
2021/03/08 06:01:47;;;;;;;24.10;14.10;;;-1.20;99.90;;;;;;5135199;27;20468;-69
2021/03/08 06:04:27;;;;;;;;;;;-1.20;99.90;;;;;;5135757;27;20026;-69
2021/03/08 06:07:07;;;;;;;25.48;14.98;;;-1.10;99.90;;;;;;5134626;27;19946;-69
2021/03/08 06:10:02;;;;;;;29.00;15.40;;;-1.00;99.90;;;;;;5133709;27;20396;-69
2021/03/08 06:12:31;;;;;;;24.55;14.68;;;-0.90;99.90;;;;;;5134942;27;20484;-69
2021/03/08 06:15:00;;;;;;;26.55;14.48;;;-0.90;99.90;;;;;;5135035;27;20490;-68
2021/03/08 06:17:26;;;;;;;27.38;14.38;;;-0.90;99.90;;;;;;5134359;27;20043;-67
2021/03/08 06:19:53;;;;;;;25.17;14.23;;;-0.90;99.90;;;;;;5134366;27;20114;-70
2021/03/08 06:22:21;;;;;;;28.10;14.60;;;-0.90;99.90;;;;;;5134505;27;20463;-68
2021/03/08 06:24:47;;;;;;;30.77;15.43;;;-1.00;99.90;;;;;;5134380;27;20494;-67
2021/03/08 06:27:14;;;;;;;23.77;13.45;;;-1.00;99.90;;;;;;5134540;27;20028;-67
2021/03/08 06:29:41;;;;;;;24.73;14.30;;;-1.00;99.90;;;;;;5134525;27;20031;-66
2021/03/08 06:32:08;;;;;;;22.85;13.82;;;-0.90;99.90;;;;;;5134348;27;20425;-67
2021/03/08 06:34:35;;;;;;;27.83;14.52;;;-0.90;99.90;;;;;;5133311;27;20090;-68
2021/03/08 06:37:07;;;;;;;25.90;13.88;;;-0.90;99.90;;;;;;5134574;27;20034;-68
2021/03/08 06:39:37;;;;;;;27.73;14.18;;;-0.80;99.90;;;;;;5134380;27;20027;-68
2021/03/08 06:42:03;;;;;;;23.85;13.90;;;-0.80;99.90;;;;;;5134409;27;20027;-68
2021/03/08 06:44:29;;;;;;;;;;;-0.90;99.90;;;;;;5134975;27;20030;-68
2021/03/08 06:46:56;;;;;;;25.83;14.57;;;-0.90;99.90;;;;;;5134915;27;20326;-69
2021/03/08 06:49:22;;;;;;;26.90;15.65;;;-1.00;99.90;;;;;;5134576;27;20432;-68
2021/03/08 06:52:01;;;;;;;22.65;13.85;;;-1.00;99.90;;;;;;5133367;28;20031;-68
2021/03/08 06:54:28;;;;;;;23.92;14.38;;;-0.90;99.90;;;;;;5134098;28;20026;-68
2021/03/08 06:56:53;;;;;;;28.00;15.73;;;-0.90;99.90;;;;;;5133022;28;20026;-66
2021/03/08 06:59:19;;;;;;;27.63;15.82;;;-0.80;99.90;;;;;;5134885;27;20031;-67
2021/03/08 07:01:45;;;;;;;25.47;14.97;;;-0.80;99.90;;;;;;5140193;27;20026;-67
2021/03/08 07:04:22;;;;;;;27.75;14.65;;;-0.70;99.90;;;;;;5138419;27;20019;-66
2021/03/08 07:07:02;;;;;;;;;;;-0.70;99.90;;;;;;5137935;27;20080;-67
2021/03/08 07:09:29;;;;;;;21.50;14.07;;;-0.70;99.90;;;;;;5138664;27;19915;-67
2021/03/08 07:12:09;;;;;;;21.75;13.93;;;-0.60;99.90;;;;;;5138774;27;20027;-68
2021/03/08 07:14:37;;;;;;;28.13;14.10;;;-0.50;99.90;;;;;;5137573;27;20023;-68
2021/03/08 07:17:22;;;;;;;25.00;13.45;;;-0.50;99.90;;;;;;5138091;27;20024;-70
2021/03/08 07:20:02;;;;;;;21.35;13.32;;;-0.50;99.90;;;;;;5137604;27;20023;-68
2021/03/08 07:22:50;;;;;;;27.15;13.15;;;-0.40;99.90;;;;;;5137649;27;20019;-68
2021/03/08 07:25:24;;;;;;;23.23;13.73;;;-0.40;99.90;;;;;;5138987;27;20023;-68
2021/03/08 07:27:56;;;;;;;23.05;14.02;;;-0.30;99.90;;;;;;5138438;27;20525;-68
2021/03/08 07:30:27;;;;;;;25.05;13.98;;;-0.30;99.90;;;;;;5138483;27;20054;-67
2021/03/08 07:32:54;;;;;;;23.63;13.85;;;-0.20;99.90;;;;;;5138660;27;20019;-68
2021/03/08 07:35:31;;;;;;;;;;;-0.10;99.90;;;;;;5137726;27;20023;-67
2021/03/08 07:37:57;;;;;;;20.33;12.67;;;0.00;99.90;;;;;;5137084;27;19971;-68
2021/03/08 07:40:24;;;;;;;20.60;12.40;;;0.10;99.90;;;;;;5138338;27;20110;-66
2021/03/08 07:42:50;;;;;;;22.95;13.07;;;0.20;99.90;;;;;;5137338;27;20410;-70
2021/03/08 07:45:17;;;;;;;21.23;13.32;;;0.30;99.90;;;;;;5138408;27;20023;-71
2021/03/08 07:47:42;;;;;;;23.70;13.80;;;0.30;99.90;;;;;;5136744;27;20030;-74
2021/03/08 07:50:27;;;;;;;23.43;12.87;;;0.50;99.90;;;;;;5137685;27;20019;-72
2021/03/08 07:52:55;;;;;;;20.70;12.52;;;0.60;99.90;;;;;;5137724;27;20069;-71
2021/03/08 07:55:34;;;;;;;23.55;14.18;;;0.60;99.90;;;;;;5137424;27;20023;-72
2021/03/08 07:58:00;;;;;;;27.50;14.95;;;0.80;99.90;;;;;;5137930;27;20027;-68
2021/03/08 08:00:28;;;;;;;23.65;13.45;;;0.80;99.90;;;;;;5137734;27;20026;-69
2021/03/08 08:02:53;;;;;;;21.13;12.98;;;0.90;99.90;;;;;;5136349;27;20102;-71
2021/03/08 08:05:19;;;;;;;26.33;14.43;;;1.00;99.90;;;;;;5136341;27;20080;-71
2021/03/08 08:07:46;;;;;;;24.13;13.10;;;1.10;99.90;;;;;;5137604;27;20023;-69
2021/03/08 08:10:14;;;;;;;;;;;1.20;99.90;;;;;;5136963;27;20031;-71
2021/03/08 08:12:45;;;;;;;23.70;12.90;;;1.20;99.90;;;;;;5136196;27;19903;-70
2021/03/08 08:15:12;;;;;;;22.50;12.93;;;1.30;99.90;;;;;;5137396;27;20023;-70
2021/03/08 08:17:40;;;;;;;20.58;13.25;;;1.40;99.90;;;;;;5138683;27;20106;-67
2021/03/08 08:20:07;;;;;;;18.95;12.27;;;1.50;99.90;;;;;;5137246;27;20033;-68
2021/03/08 08:22:34;;;;;;;20.40;11.77;;;1.60;99.90;;;;;;5137574;27;20391;-68
2021/03/08 08:25:03;;;;;;;21.83;13.02;;;1.70;99.90;;;;;;5137274;27;20046;-68
2021/03/08 08:27:31;;;;;;;20.98;12.70;;;1.80;99.90;;;;;;5137785;27;20480;-66
2021/03/08 08:30:02;;;;;;;20.85;12.68;;;1.90;99.90;;;;;;5137531;27;20023;-67
2021/03/08 08:32:47;;;;;;;19.20;11.32;;;2.10;99.90;;;;;;5137275;27;20492;-68
2021/03/08 08:35:21;;;;;;;21.50;11.73;;;2.20;99.90;;;;;;5137195;27;20024;-67
2021/03/08 08:38:11;;;;;;;19.02;11.77;;;2.30;99.90;;;;;;5135831;27;20484;-65
2021/03/08 08:40:38;;;;;;;17.48;11.80;;;2.40;99.90;;;;;;5135578;27;20072;-67
2021/03/08 08:43:16;;;;;;;17.42;11.05;;;2.50;99.90;;;;;;5136190;27;20479;-68
2021/03/08 08:45:43;;;;;;;17.25;11.15;;;2.60;99.90;;;;;;5138093;27;20106;-67
2021/03/08 08:48:10;;;;;;;22.67;11.48;;;2.70;99.90;;;;;;5140245;27;20031;-66
2021/03/08 08:50:44;;;;;;;18.13;11.43;;;2.80;99.90;;;;;;5142007;27;20023;-65
2021/03/08 08:53:10;;;;;;;16.75;11.43;;;2.90;99.90;;;;;;5138270;27;20498;-68
2021/03/08 08:55:36;;;;;;;16.15;10.77;;;3.00;99.90;;;;;;5136999;27;20023;-66
2021/03/08 08:58:22;;;;;;;16.27;11.23;;;3.10;99.90;;;;;;5136164;27;20058;-69
2021/03/08 09:04:06;;;;;;;15.75;9.95;;;3.40;99.90;;;;;;5130251;27;20028;-70
2021/03/08 09:06:54;;;;;;;15.82;10.25;;;3.50;99.90;;;;;;5139226;27;20019;-69
2021/03/08 09:09:22;;;;;;;13.95;9.57;;;3.60;99.90;;;;;;5137334;27;20119;-66
2021/03/08 09:11:53;;;;;;;15.38;9.00;;;3.70;99.90;;;;;;5136817;27;20027;-65
2021/03/08 09:14:34;;;;;;;16.92;9.57;;;3.90;99.90;;;;;;5134867;27;20027;-67
2021/03/08 09:17:19;;;;;;;14.77;9.40;;;4.20;99.80;;;;;;5137187;27;20163;-73
2021/03/08 09:20:10;;;;;;;15.68;8.85;;;4.70;99.00;;;;;;5136368;27;20023;-73
2021/03/08 09:22:52;;;;;;;14.15;8.50;;;5.60;96.70;;;;;;5134019;27;20109;-68
2021/03/08 09:25:20;;;;;;;13.32;8.43;;;7.20;91.90;;;;;;5134566;27;20047;-65
2021/03/08 09:27:49;;;;;;;11.13;8.98;;;9.30;80.50;;;;;;5135913;27;20019;-72
2021/03/08 09:30:18;;;;;;;12.25;8.43;;;11.40;64.20;;;;;;5136327;27;20042;-71
2021/03/08 09:33:05;;;;;;;11.18;7.93;;;13.60;55.00;;;;;;5135202;27;20495;-69
2021/03/08 09:35:56;;;;;;;10.73;7.93;;;14.10;51.00;;;;;;5134095;27;20068;-68
2021/03/08 09:38:27;;;;;;;11.75;7.78;;;14.90;47.10;;;;;;5134254;27;20459;-66
2021/03/08 09:40:59;;;;;;;10.57;8.48;;;14.50;47.30;;;;;;5134332;27;20099;-67
2021/03/08 09:43:36;;;;;;;9.90;8.27;;;13.50;48.10;;;;;;5134370;27;20022;-69
2021/03/08 09:46:01;;;;;;;;;;;13.50;49.30;;;;;;5134964;27;20023;-67
2021/03/08 09:48:29;;;;;;;10.60;7.97;;;14.30;47.50;;;;;;5135343;27;19922;-68
2021/03/08 09:51:06;;;;;;;12.85;9.15;;;13.90;47.30;;;;;;5136036;27;20032;-67
2021/03/08 09:53:34;;;;;;;11.75;8.20;;;13.70;48.20;;;;;;5135795;27;20020;-69
2021/03/08 09:56:07;;;;;;;11.10;8.15;;;13.90;47.60;;;;;;5136883;27;20111;-69
2021/03/08 09:58:33;;;;;;;10.30;7.60;;;14.90;45.90;;;;;;5136037;27;20391;-70
2021/03/08 10:00:59;;;;;;;13.55;8.70;;;14.10;45.90;;;;;;5135036;27;20022;-72
2021/03/08 10:03:25;;;;;;;10.05;7.95;;;13.90;48.30;;;;;;5136583;27;20380;-71
2021/03/08 10:05:54;;;;;;;9.48;7.28;;;14.20;46.20;;;;;;5136430;27;20019;-71
2021/03/08 10:08:28;;;;;;;10.80;7.57;;;14.40;45.80;;;;;;5135053;27;20027;-71
2021/03/08 10:10:53;;;;;;;9.75;7.95;;;12.80;47.60;;;;;;5136165;27;20022;-72
2021/03/08 10:13:21;;;;;;;9.90;7.55;;;13.40;48.00;;;;;;5135547;27;20450;-71
2021/03/08 10:15:49;;;;;;;10.38;7.60;;;14.90;45.80;;;;;;5135228;27;20031;-72
2021/03/08 10:18:17;;;;;;;8.32;6.70;;;16.50;43.20;;;;;;5135118;27;20071;-71
2021/03/08 10:21:04;;;;;;;8.70;6.93;;;16.80;41.40;;;;;;5134927;27;20025;-72
2021/03/08 10:23:34;;;;;;;13.75;7.35;;;17.20;41.40;;;;;;5135275;27;20027;-72
2021/03/08 10:26:14;;;;;;;8.57;6.65;;;18.10;40.30;;;;;;5133595;27;20027;-71
2021/03/08 10:28:51;;;;;;;11.32;7.55;;;17.00;39.50;;;;;;5133881;27;20115;-72
2021/03/08 10:31:22;;;;;;;9.30;7.40;;;16.10;41.40;;;;;;5133498;27;20023;-71
2021/03/08 10:33:55;;;;;;;10.80;7.30;;;15.20;42.80;;;;;;5133025;27;20547;-70
2021/03/08 10:36:23;;;;;;;9.48;6.90;;;15.80;42.60;;;;;;5133982;27;20115;-71
2021/03/08 10:38:58;;;;;;;7.78;6.20;;;17.00;41.20;;;;;;5139600;27;20026;-73
2021/03/08 10:41:26;;;;;;;7.47;5.68;;;17.20;39.70;;;;;;5134416;27;20050;-73
2021/03/08 10:43:53;;;;;;;8.90;5.53;;;15.20;41.50;;;;;;5134890;27;20042;-70
2021/03/08 10:46:20;;;;;;;7.45;5.18;;;14.30;43.00;;;;;;5133501;27;20026;-71
2021/03/08 10:49:02;;;;;;;6.97;4.88;;;14.20;43.20;;;;;;5134517;27;20152;-71
2021/03/08 10:51:30;;;;;;;7.05;5.38;;;14.40;43.90;;;;;;5133447;27;20031;-71
2021/03/08 10:53:56;;;;;;;8.30;5.28;;;14.30;43.00;;;;;;5135129;27;20489;-72
2021/03/08 10:56:22;;;;;;;6.78;5.00;;;14.20;43.70;;;;;;5133526;28;20027;-71
2021/03/08 10:58:48;;;;;;;;;;;14.40;43.10;;;;;;5134582;28;20034;-71
2021/03/08 11:01:14;;;;;;;8.90;5.10;;;13.80;44.70;;;;;;5135330;28;19903;-72
2021/03/08 11:03:41;;;;;;;7.40;5.30;;;15.10;42.30;;;;;;5133569;28;20027;-72
2021/03/08 11:06:08;;;;;;;6.35;5.38;;;14.00;43.30;;;;;;5134676;28;20031;-71
2021/03/08 11:08:38;;;;;;;7.50;5.68;;;13.00;45.40;;;;;;5134191;28;20035;-72
2021/03/08 11:11:16;;;;;;;9.98;5.22;;;12.00;46.40;;;;;;5132742;28;20460;-72
2021/03/08 11:13:42;;;;;;;8.45;5.00;;;10.70;48.80;;;;;;5132554;28;20027;-70
2021/03/08 11:16:12;;;;;;;7.18;5.55;;;10.00;50.90;;;;;;5132270;28;20025;-70
2021/03/08 11:18:38;;;;;;;11.60;5.57;;;9.50;52.30;;;;;;5133614;28;20027;-70
2021/03/08 11:21:21;;;;;;;8.50;5.57;;;8.80;53.90;;;;;;5133716;28;20026;-69
2021/03/08 11:23:47;;;;;;;9.45;5.22;;;8.50;55.10;;;;;;5133842;28;20011;-69
2021/03/08 11:26:12;;;;;;;9.40;4.80;;;8.20;56.20;;;;;;5132346;28;20016;-71
2021/03/08 11:28:39;;;;;;;8.65;5.60;;;8.00;57.30;;;;;;5132800;28;20072;-70
2021/03/08 11:31:05;;;;;;;7.47;5.15;;;7.60;58.80;;;;;;5134262;28;20503;-71
2021/03/08 11:33:46;;;;;;;8.47;5.20;;;7.50;59.80;;;;;;5134092;28;20019;-71
2021/03/08 11:36:12;;;;;;;10.27;4.93;;;7.40;60.90;;;;;;5135638;28;20487;-70
2021/03/08 11:38:37;;;;;;;7.70;4.43;;;7.60;62.10;;;;;;5132741;28;20027;-69
2021/03/08 11:41:03;;;;;;;7.13;4.83;;;7.60;61.00;;;;;;5132077;28;20027;-69
2021/03/08 11:43:29;;;;;;;8.40;4.97;;;7.30;61.70;;;;;;5133703;28;20498;-69
2021/03/08 11:45:55;;;;;;;7.77;4.57;;;7.20;63.00;;;;;;5135118;27;20351;-69
2021/03/08 11:48:23;;;;;;;6.75;4.68;;;7.40;63.50;;;;;;5137622;27;20027;-69
2021/03/08 11:50:49;;;;;;;7.60;4.70;;;7.40;63.00;;;;;;5138513;27;20023;-69
2021/03/08 11:53:15;;;;;;;9.80;5.00;;;7.40;64.00;;;;;;5138527;27;20024;-69
2021/03/08 11:55:41;;;;;;;6.67;4.73;;;7.40;64.00;;;;;;5138163;27;20016;-69
2021/03/08 11:58:06;;;;;;;8.15;4.13;;;7.40;64.50;;;;;;5138848;27;20106;-68
2021/03/08 12:00:32;;;;;;;7.17;4.13;;;7.50;62.50;;;;;;5138609;27;20031;-69
2021/03/08 12:02:58;;;;;;;12.07;4.70;;;7.40;62.80;;;;;;5138398;27;20261;-69
2021/03/08 12:05:24;;;;;;;7.17;4.30;;;7.30;62.60;;;;;;5140646;27;20024;-69
2021/03/08 12:07:49;;;;;;;6.50;4.00;;;7.20;63.60;;;;;;5141556;27;20027;-70
2021/03/08 12:10:16;;;;;;;6.90;4.40;;;7.30;64.10;;;;;;5140594;27;20023;-71
2021/03/08 12:12:42;;;;;;;6.53;3.75;;;7.40;64.10;;;;;;5141241;27;20027;-68
2021/03/08 12:15:09;;;;;;;;;;;7.50;62.70;;;;;;5141117;27;20219;-72
2021/03/08 12:17:36;;;;;;;9.00;3.77;;;7.70;60.80;;;;;;5140391;27;19908;-73
2021/03/08 12:20:05;;;;;;;;;;;7.80;62.80;;;;;;5141690;27;20031;-72
2021/03/08 12:22:42;;;;;;;10.77;4.43;;;8.00;59.60;;;;;;5137974;27;19926;-70
2021/03/08 12:25:11;;;;;;;6.68;4.00;;;7.90;58.70;;;;;;5138815;27;20022;-69
2021/03/08 12:27:40;;;;;;;6.15;4.38;;;7.80;58.40;;;;;;5138008;27;20027;-70
2021/03/08 12:30:07;;;;;;;8.02;3.65;;;7.70;58.50;;;;;;5136276;27;20484;-70
2021/03/08 12:32:35;;;;;;;7.65;4.50;;;7.70;58.40;;;;;;5136445;27;20031;-70
2021/03/08 12:35:01;;;;;;;7.05;4.68;;;7.70;57.60;;;;;;5136299;27;20368;-71
2021/03/08 12:37:27;;;;;;;8.30;4.55;;;7.70;57.60;;;;;;5137562;27;20055;-70
2021/03/08 12:39:56;;;;;;;9.10;5.00;;;7.70;58.40;;;;;;5136271;27;20079;-69
2021/03/08 12:42:21;;;;;;;7.10;3.92;;;7.60;58.70;;;;;;5135530;27;20027;-67
2021/03/08 12:44:50;;;;;;;5.97;3.83;;;7.50;58.70;;;;;;5135230;27;20029;-69
2021/03/08 12:47:24;;;;;;;6.32;3.65;;;7.50;58.20;;;;;;5135202;27;20065;-69
2021/03/08 12:49:50;;;;;;;6.13;3.50;;;7.50;57.70;;;;;;5135993;27;20407;-69
2021/03/08 12:52:21;;;;;;;6.37;3.63;;;7.60;58.00;;;;;;5138860;27;20034;-70
2021/03/08 12:54:48;;;;;;;5.97;3.60;;;7.50;58.80;;;;;;5140531;27;20260;-68
2021/03/08 12:57:18;;;;;;;7.80;4.28;;;7.70;59.30;;;;;;5134799;27;20042;-70